sensor_id;sensor_type;location;lat;lon;timestamp;P1;durP1;ratioP1;P2;durP2;ratioP2
27895;SDS011;15241;48.374;10.876;2023-03-05T00:02:47;34.80;;;18.30;;
27895;SDS011;15241;48.374;10.876;2023-03-05T00:07:54;34.75;;;17.82;;
27895;SDS011;15241;48.374;10.876;2023-03-05T00:12:53;34.65;;;17.30;;
27895;SDS011;15241;48.374;10.876;2023-03-05T00:17:52;34.60;;;18.67;;
27895;SDS011;15241;48.374;10.876;2023-03-05T00:22:51;39.65;;;19.52;;
27895;SDS011;15241;48.374;10.876;2023-03-05T00:27:50;39.60;;;19.85;;
27895;SDS011;15241;48.374;10.876;2023-03-05T00:32:49;38.55;;;19.82;;
27895;SDS011;15241;48.374;10.876;2023-03-05T00:37:48;39.00;;;19.30;;
27895;SDS011;15241;48.374;10.876;2023-03-05T00:42:47;37.03;;;19.57;;
27895;SDS011;15241;48.374;10.876;2023-03-05T00:47:46;39.30;;;19.95;;
27895;SDS011;15241;48.374;10.876;2023-03-05T00:52:45;41.75;;;19.73;;
27895;SDS011;15241;48.374;10.876;2023-03-05T00:57:44;37.38;;;20.05;;
27895;SDS011;15241;48.374;10.876;2023-03-05T01:02:44;40.58;;;20.55;;
27895;SDS011;15241;48.374;10.876;2023-03-05T01:07:43;40.20;;;20.72;;
27895;SDS011;15241;48.374;10.876;2023-03-05T01:12:42;37.93;;;19.50;;
27895;SDS011;15241;48.374;10.876;2023-03-05T01:17:41;43.45;;;21.15;;
27895;SDS011;15241;48.374;10.876;2023-03-05T01:22:48;36.93;;;18.35;;
27895;SDS011;15241;48.374;10.876;2023-03-05T01:27:47;39.63;;;19.95;;
27895;SDS011;15241;48.374;10.876;2023-03-05T01:32:47;41.05;;;20.08;;
27895;SDS011;15241;48.374;10.876;2023-03-05T01:37:46;37.40;;;19.77;;
27895;SDS011;15241;48.374;10.876;2023-03-05T01:42:45;39.18;;;19.70;;
27895;SDS011;15241;48.374;10.876;2023-03-05T01:47:45;40.65;;;19.23;;
27895;SDS011;15241;48.374;10.876;2023-03-05T01:52:45;36.50;;;18.40;;
27895;SDS011;15241;48.374;10.876;2023-03-05T01:57:48;37.85;;;18.37;;
27895;SDS011;15241;48.374;10.876;2023-03-05T02:02:49;37.42;;;19.05;;
27895;SDS011;15241;48.374;10.876;2023-03-05T02:07:48;40.03;;;20.95;;
27895;SDS011;15241;48.374;10.876;2023-03-05T02:12:48;33.90;;;18.32;;
27895;SDS011;15241;48.374;10.876;2023-03-05T02:17:48;36.93;;;18.07;;
27895;SDS011;15241;48.374;10.876;2023-03-05T02:22:47;38.45;;;19.65;;
27895;SDS011;15241;48.374;10.876;2023-03-05T02:27:49;36.68;;;19.20;;
27895;SDS011;15241;48.374;10.876;2023-03-05T02:32:51;38.13;;;19.87;;
27895;SDS011;15241;48.374;10.876;2023-03-05T02:37:50;36.00;;;19.02;;
27895;SDS011;15241;48.374;10.876;2023-03-05T02:42:49;41.42;;;19.65;;
27895;SDS011;15241;48.374;10.876;2023-03-05T02:47:48;35.40;;;19.27;;
27895;SDS011;15241;48.374;10.876;2023-03-05T02:52:47;39.90;;;20.77;;
27895;SDS011;15241;48.374;10.876;2023-03-05T02:57:46;37.17;;;18.85;;
27895;SDS011;15241;48.374;10.876;2023-03-05T03:02:45;37.45;;;18.73;;
27895;SDS011;15241;48.374;10.876;2023-03-05T03:07:44;35.98;;;18.85;;
27895;SDS011;15241;48.374;10.876;2023-03-05T03:12:43;44.15;;;21.10;;
27895;SDS011;15241;48.374;10.876;2023-03-05T03:17:42;41.77;;;20.08;;
27895;SDS011;15241;48.374;10.876;2023-03-05T03:22:41;38.15;;;18.37;;
27895;SDS011;15241;48.374;10.876;2023-03-05T03:27:43;42.67;;;19.75;;
27895;SDS011;15241;48.374;10.876;2023-03-05T03:32:42;32.53;;;18.15;;
27895;SDS011;15241;48.374;10.876;2023-03-05T03:37:41;36.58;;;18.98;;
27895;SDS011;15241;48.374;10.876;2023-03-05T03:42:41;38.17;;;19.45;;
27895;SDS011;15241;48.374;10.876;2023-03-05T03:47:40;43.85;;;21.42;;
27895;SDS011;15241;48.374;10.876;2023-03-05T03:57:48;36.98;;;18.90;;
27895;SDS011;15241;48.374;10.876;2023-03-05T04:02:47;39.40;;;19.82;;
27895;SDS011;15241;48.374;10.876;2023-03-05T04:07:46;38.83;;;19.27;;
27895;SDS011;15241;48.374;10.876;2023-03-05T04:12:46;42.15;;;20.00;;
27895;SDS011;15241;48.374;10.876;2023-03-05T04:17:44;38.58;;;19.80;;
27895;SDS011;15241;48.374;10.876;2023-03-05T04:22:43;42.17;;;20.68;;
27895;SDS011;15241;48.374;10.876;2023-03-05T04:27:42;44.13;;;20.80;;
27895;SDS011;15241;48.374;10.876;2023-03-05T04:32:41;40.98;;;19.60;;
27895;SDS011;15241;48.374;10.876;2023-03-05T04:37:40;40.90;;;19.90;;
27895;SDS011;15241;48.374;10.876;2023-03-05T04:42:39;42.25;;;21.40;;
27895;SDS011;15241;48.374;10.876;2023-03-05T04:47:38;45.15;;;21.25;;
27895;SDS011;15241;48.374;10.876;2023-03-05T04:52:38;37.28;;;20.52;;
27895;SDS011;15241;48.374;10.876;2023-03-05T04:57:38;40.88;;;20.35;;
27895;SDS011;15241;48.374;10.876;2023-03-05T05:02:37;41.18;;;20.70;;
27895;SDS011;15241;48.374;10.876;2023-03-05T05:07:37;45.03;;;21.35;;
27895;SDS011;15241;48.374;10.876;2023-03-05T05:12:37;50.85;;;23.07;;
27895;SDS011;15241;48.374;10.876;2023-03-05T05:17:36;41.53;;;20.70;;
27895;SDS011;15241;48.374;10.876;2023-03-05T05:22:35;42.40;;;20.25;;
27895;SDS011;15241;48.374;10.876;2023-03-05T05:27:34;39.23;;;19.85;;
27895;SDS011;15241;48.374;10.876;2023-03-05T05:32:33;43.52;;;21.55;;
27895;SDS011;15241;48.374;10.876;2023-03-05T05:37:32;44.27;;;20.23;;
27895;SDS011;15241;48.374;10.876;2023-03-05T05:42:31;43.58;;;21.42;;
27895;SDS011;15241;48.374;10.876;2023-03-05T05:47:30;48.90;;;22.27;;
27895;SDS011;15241;48.374;10.876;2023-03-05T05:52:29;43.92;;;20.77;;
27895;SDS011;15241;48.374;10.876;2023-03-05T05:57:29;40.73;;;21.07;;
27895;SDS011;15241;48.374;10.876;2023-03-05T06:02:28;43.80;;;20.62;;
27895;SDS011;15241;48.374;10.876;2023-03-05T06:07:27;42.58;;;20.20;;
27895;SDS011;15241;48.374;10.876;2023-03-05T06:12:26;35.25;;;18.65;;
27895;SDS011;15241;48.374;10.876;2023-03-05T06:17:28;39.85;;;19.50;;
27895;SDS011;15241;48.374;10.876;2023-03-05T06:22:27;40.98;;;20.00;;
27895;SDS011;15241;48.374;10.876;2023-03-05T06:27:26;44.00;;;21.45;;
27895;SDS011;15241;48.374;10.876;2023-03-05T06:32:25;41.88;;;20.92;;
27895;SDS011;15241;48.374;10.876;2023-03-05T06:37:24;47.83;;;22.22;;
27895;SDS011;15241;48.374;10.876;2023-03-05T06:42:23;43.15;;;20.85;;
27895;SDS011;15241;48.374;10.876;2023-03-05T06:47:22;40.60;;;20.08;;
27895;SDS011;15241;48.374;10.876;2023-03-05T06:52:21;41.58;;;20.90;;
27895;SDS011;15241;48.374;10.876;2023-03-05T06:57:20;39.00;;;19.42;;
27895;SDS011;15241;48.374;10.876;2023-03-05T07:02:19;43.92;;;21.25;;
27895;SDS011;15241;48.374;10.876;2023-03-05T07:07:18;40.55;;;20.23;;
27895;SDS011;15241;48.374;10.876;2023-03-05T07:12:17;42.60;;;19.95;;
27895;SDS011;15241;48.374;10.876;2023-03-05T07:17:16;41.30;;;19.62;;
27895;SDS011;15241;48.374;10.876;2023-03-05T07:22:14;43.58;;;19.77;;
27895;SDS011;15241;48.374;10.876;2023-03-05T07:27:13;37.33;;;19.37;;
27895;SDS011;15241;48.374;10.876;2023-03-05T07:32:12;37.90;;;18.57;;
27895;SDS011;15241;48.374;10.876;2023-03-05T07:37:13;41.30;;;20.48;;
27895;SDS011;15241;48.374;10.876;2023-03-05T07:42:12;40.98;;;19.42;;
27895;SDS011;15241;48.374;10.876;2023-03-05T07:47:11;37.40;;;19.07;;
27895;SDS011;15241;48.374;10.876;2023-03-05T07:52:10;38.10;;;18.77;;
27895;SDS011;15241;48.374;10.876;2023-03-05T07:57:09;42.27;;;19.48;;
27895;SDS011;15241;48.374;10.876;2023-03-05T08:02:10;37.23;;;18.52;;
27895;SDS011;15241;48.374;10.876;2023-03-05T08:07:12;39.58;;;19.20;;
27895;SDS011;15241;48.374;10.876;2023-03-05T08:12:11;35.85;;;17.20;;
27895;SDS011;15241;48.374;10.876;2023-03-05T08:17:12;45.83;;;19.52;;
27895;SDS011;15241;48.374;10.876;2023-03-05T08:22:12;34.15;;;18.32;;
27895;SDS011;15241;48.374;10.876;2023-03-05T08:27:13;41.15;;;19.00;;
27895;SDS011;15241;48.374;10.876;2023-03-05T08:32:12;39.27;;;18.92;;
27895;SDS011;15241;48.374;10.876;2023-03-05T08:37:12;37.78;;;20.15;;
27895;SDS011;15241;48.374;10.876;2023-03-05T08:42:10;39.23;;;19.00;;
27895;SDS011;15241;48.374;10.876;2023-03-05T08:47:09;36.25;;;18.92;;
27895;SDS011;15241;48.374;10.876;2023-03-05T08:52:08;35.83;;;17.90;;
27895;SDS011;15241;48.374;10.876;2023-03-05T08:57:07;40.20;;;19.07;;
27895;SDS011;15241;48.374;10.876;2023-03-05T09:02:08;34.65;;;17.90;;
27895;SDS011;15241;48.374;10.876;2023-03-05T09:07:07;38.58;;;18.48;;
27895;SDS011;15241;48.374;10.876;2023-03-05T09:12:07;34.98;;;18.32;;
27895;SDS011;15241;48.374;10.876;2023-03-05T09:17:07;39.30;;;18.95;;
27895;SDS011;15241;48.374;10.876;2023-03-05T09:22:07;37.25;;;17.37;;
27895;SDS011;15241;48.374;10.876;2023-03-05T09:27:07;36.88;;;17.77;;
27895;SDS011;15241;48.374;10.876;2023-03-05T09:32:06;41.37;;;19.15;;
27895;SDS011;15241;48.374;10.876;2023-03-05T09:37:05;35.68;;;16.97;;
27895;SDS011;15241;48.374;10.876;2023-03-05T09:42:14;33.18;;;16.95;;
27895;SDS011;15241;48.374;10.876;2023-03-05T09:47:32;37.65;;;18.05;;
27895;SDS011;15241;48.374;10.876;2023-03-05T09:52:47;36.33;;;17.45;;
27895;SDS011;15241;48.374;10.876;2023-03-05T09:57:50;38.50;;;17.73;;
27895;SDS011;15241;48.374;10.876;2023-03-05T10:08:11;42.13;;;19.17;;
27895;SDS011;15241;48.374;10.876;2023-03-05T10:13:15;36.68;;;17.20;;
27895;SDS011;15241;48.374;10.876;2023-03-05T10:18:18;34.43;;;18.07;;
27895;SDS011;15241;48.374;10.876;2023-03-05T10:23:22;33.08;;;17.45;;
27895;SDS011;15241;48.374;10.876;2023-03-05T10:28:32;38.55;;;18.75;;
27895;SDS011;15241;48.374;10.876;2023-03-05T10:33:37;37.08;;;17.73;;
27895;SDS011;15241;48.374;10.876;2023-03-05T10:38:53;36.70;;;17.15;;
27895;SDS011;15241;48.374;10.876;2023-03-05T10:44:09;34.13;;;17.00;;
27895;SDS011;15241;48.374;10.876;2023-03-05T10:49:13;35.03;;;17.32;;
27895;SDS011;15241;48.374;10.876;2023-03-05T10:54:17;38.63;;;18.65;;
27895;SDS011;15241;48.374;10.876;2023-03-05T10:59:18;31.12;;;16.37;;
27895;SDS011;15241;48.374;10.876;2023-03-05T11:04:27;32.13;;;16.50;;
27895;SDS011;15241;48.374;10.876;2023-03-05T11:09:28;35.30;;;17.62;;
27895;SDS011;15241;48.374;10.876;2023-03-05T11:14:28;30.82;;;17.27;;
27895;SDS011;15241;48.374;10.876;2023-03-05T11:19:28;32.73;;;17.67;;
27895;SDS011;15241;48.374;10.876;2023-03-05T11:24:27;35.52;;;16.15;;
27895;SDS011;15241;48.374;10.876;2023-03-05T11:29:27;31.42;;;15.75;;
27895;SDS011;15241;48.374;10.876;2023-03-05T11:34:29;34.98;;;16.52;;
27895;SDS011;15241;48.374;10.876;2023-03-05T11:39:29;32.28;;;15.85;;
27895;SDS011;15241;48.374;10.876;2023-03-05T11:44:31;36.15;;;17.25;;
27895;SDS011;15241;48.374;10.876;2023-03-05T11:49:31;32.25;;;15.70;;
27895;SDS011;15241;48.374;10.876;2023-03-05T11:54:35;32.55;;;15.40;;
27895;SDS011;15241;48.374;10.876;2023-03-05T11:59:35;35.45;;;16.48;;
27895;SDS011;15241;48.374;10.876;2023-03-05T12:04:35;27.02;;;15.68;;
27895;SDS011;15241;48.374;10.876;2023-03-05T12:09:36;30.68;;;15.23;;
27895;SDS011;15241;48.374;10.876;2023-03-05T12:14:38;28.17;;;15.80;;
27895;SDS011;15241;48.374;10.876;2023-03-05T12:19:41;28.10;;;15.05;;
27895;SDS011;15241;48.374;10.876;2023-03-05T12:24:44;36.00;;;17.40;;
27895;SDS011;15241;48.374;10.876;2023-03-05T12:29:45;30.17;;;16.27;;
27895;SDS011;15241;48.374;10.876;2023-03-05T12:34:49;31.68;;;15.70;;
27895;SDS011;15241;48.374;10.876;2023-03-05T12:39:59;36.70;;;15.10;;
27895;SDS011;15241;48.374;10.876;2023-03-05T12:50:47;28.50;;;15.03;;
27895;SDS011;15241;48.374;10.876;2023-03-05T12:55:53;33.30;;;16.62;;
27895;SDS011;15241;48.374;10.876;2023-03-05T13:00:57;18.95;;;11.05;;
27895;SDS011;15241;48.374;10.876;2023-03-05T13:05:58;18.37;;;9.85;;
27895;SDS011;15241;48.374;10.876;2023-03-05T13:10:59;20.90;;;12.20;;
27895;SDS011;15241;48.374;10.876;2023-03-05T13:15:59;22.65;;;13.28;;
27895;SDS011;15241;48.374;10.876;2023-03-05T13:21:00;19.32;;;10.35;;
27895;SDS011;15241;48.374;10.876;2023-03-05T13:26:03;15.85;;;8.60;;
27895;SDS011;15241;48.374;10.876;2023-03-05T13:31:12;14.00;;;7.33;;
27895;SDS011;15241;48.374;10.876;2023-03-05T13:41:19;14.20;;;7.72;;
27895;SDS011;15241;48.374;10.876;2023-03-05T13:46:27;14.05;;;8.88;;
27895;SDS011;15241;48.374;10.876;2023-03-05T13:51:40;17.77;;;7.85;;
27895;SDS011;15241;48.374;10.876;2023-03-05T14:02:14;14.98;;;7.50;;
27895;SDS011;15241;48.374;10.876;2023-03-05T14:07:23;14.13;;;7.53;;
27895;SDS011;15241;48.374;10.876;2023-03-05T14:12:26;16.57;;;8.48;;
27895;SDS011;15241;48.374;10.876;2023-03-05T14:17:31;15.93;;;8.85;;
27895;SDS011;15241;48.374;10.876;2023-03-05T14:22:35;13.00;;;7.37;;
27895;SDS011;15241;48.374;10.876;2023-03-05T14:27:35;14.47;;;7.87;;
27895;SDS011;15241;48.374;10.876;2023-03-05T14:32:35;12.70;;;7.58;;
27895;SDS011;15241;48.374;10.876;2023-03-05T14:37:35;14.47;;;7.45;;
27895;SDS011;15241;48.374;10.876;2023-03-05T14:42:36;13.48;;;6.80;;
27895;SDS011;15241;48.374;10.876;2023-03-05T14:47:46;12.53;;;7.08;;
27895;SDS011;15241;48.374;10.876;2023-03-05T14:52:47;13.00;;;7.97;;
27895;SDS011;15241;48.374;10.876;2023-03-05T14:57:49;14.35;;;7.95;;
27895;SDS011;15241;48.374;10.876;2023-03-05T15:02:50;14.00;;;7.15;;
27895;SDS011;15241;48.374;10.876;2023-03-05T15:07:49;15.55;;;7.70;;
27895;SDS011;15241;48.374;10.876;2023-03-05T15:12:49;10.98;;;6.72;;
27895;SDS011;15241;48.374;10.876;2023-03-05T15:17:49;13.65;;;7.20;;
27895;SDS011;15241;48.374;10.876;2023-03-05T15:22:48;12.45;;;7.12;;
27895;SDS011;15241;48.374;10.876;2023-03-05T15:27:47;13.60;;;8.18;;
27895;SDS011;15241;48.374;10.876;2023-03-05T15:32:46;14.15;;;8.05;;
27895;SDS011;15241;48.374;10.876;2023-03-05T15:37:46;13.10;;;7.97;;
27895;SDS011;15241;48.374;10.876;2023-03-05T15:42:45;15.60;;;7.80;;
27895;SDS011;15241;48.374;10.876;2023-03-05T15:47:44;13.18;;;7.70;;
27895;SDS011;15241;48.374;10.876;2023-03-05T15:52:45;15.03;;;7.67;;
27895;SDS011;15241;48.374;10.876;2023-03-05T15:57:48;13.58;;;7.87;;
27895;SDS011;15241;48.374;10.876;2023-03-05T16:02:48;18.50;;;8.28;;
27895;SDS011;15241;48.374;10.876;2023-03-05T16:07:47;16.17;;;9.00;;
27895;SDS011;15241;48.374;10.876;2023-03-05T16:12:49;14.98;;;8.58;;
27895;SDS011;15241;48.374;10.876;2023-03-05T16:17:53;18.60;;;9.98;;
27895;SDS011;15241;48.374;10.876;2023-03-05T16:22:55;16.80;;;8.23;;
27895;SDS011;15241;48.374;10.876;2023-03-05T16:27:54;16.27;;;8.60;;
27895;SDS011;15241;48.374;10.876;2023-03-05T16:32:54;14.28;;;7.35;;
27895;SDS011;15241;48.374;10.876;2023-03-05T16:37:53;12.37;;;7.53;;
27895;SDS011;15241;48.374;10.876;2023-03-05T16:42:53;14.30;;;7.87;;
27895;SDS011;15241;48.374;10.876;2023-03-05T16:47:52;17.27;;;7.87;;
27895;SDS011;15241;48.374;10.876;2023-03-05T16:52:52;13.20;;;7.65;;
27895;SDS011;15241;48.374;10.876;2023-03-05T16:57:51;15.65;;;8.30;;
27895;SDS011;15241;48.374;10.876;2023-03-05T17:02:50;14.05;;;8.43;;
27895;SDS011;15241;48.374;10.876;2023-03-05T17:07:49;18.48;;;9.50;;
27895;SDS011;15241;48.374;10.876;2023-03-05T17:12:54;13.50;;;8.05;;
27895;SDS011;15241;48.374;10.876;2023-03-05T17:17:53;33.90;;;23.32;;
27895;SDS011;15241;48.374;10.876;2023-03-05T17:22:52;19.37;;;10.10;;
27895;SDS011;15241;48.374;10.876;2023-03-05T17:27:52;14.23;;;8.63;;
27895;SDS011;15241;48.374;10.876;2023-03-05T17:32:51;15.98;;;8.78;;
27895;SDS011;15241;48.374;10.876;2023-03-05T17:37:51;15.28;;;7.78;;
27895;SDS011;15241;48.374;10.876;2023-03-05T17:42:50;16.87;;;8.93;;
27895;SDS011;15241;48.374;10.876;2023-03-05T17:47:48;13.93;;;8.28;;
27895;SDS011;15241;48.374;10.876;2023-03-05T17:52:47;15.58;;;9.45;;
27895;SDS011;15241;48.374;10.876;2023-03-05T17:57:46;19.07;;;8.50;;
27895;SDS011;15241;48.374;10.876;2023-03-05T18:02:45;17.73;;;9.25;;
27895;SDS011;15241;48.374;10.876;2023-03-05T18:07:45;18.62;;;9.48;;
27895;SDS011;15241;48.374;10.876;2023-03-05T18:12:45;17.52;;;9.63;;
27895;SDS011;15241;48.374;10.876;2023-03-05T18:17:45;16.75;;;9.55;;
27895;SDS011;15241;48.374;10.876;2023-03-05T18:22:45;17.87;;;10.20;;
27895;SDS011;15241;48.374;10.876;2023-03-05T18:27:47;18.85;;;11.70;;
27895;SDS011;15241;48.374;10.876;2023-03-05T18:32:46;18.65;;;10.50;;
27895;SDS011;15241;48.374;10.876;2023-03-05T18:37:48;21.02;;;11.73;;
27895;SDS011;15241;48.374;10.876;2023-03-05T18:42:47;20.77;;;10.93;;
27895;SDS011;15241;48.374;10.876;2023-03-05T18:47:46;22.32;;;11.20;;
27895;SDS011;15241;48.374;10.876;2023-03-05T18:52:46;21.55;;;11.73;;
27895;SDS011;15241;48.374;10.876;2023-03-05T18:57:46;27.45;;;12.98;;
27895;SDS011;15241;48.374;10.876;2023-03-05T19:02:45;19.70;;;10.70;;
27895;SDS011;15241;48.374;10.876;2023-03-05T19:07:48;21.82;;;10.98;;
27895;SDS011;15241;48.374;10.876;2023-03-05T19:12:47;20.92;;;10.93;;
27895;SDS011;15241;48.374;10.876;2023-03-05T19:17:46;21.55;;;11.20;;
27895;SDS011;15241;48.374;10.876;2023-03-05T19:22:45;18.90;;;10.25;;
27895;SDS011;15241;48.374;10.876;2023-03-05T19:27:47;26.17;;;11.35;;
27895;SDS011;15241;48.374;10.876;2023-03-05T19:32:46;20.72;;;12.07;;
27895;SDS011;15241;48.374;10.876;2023-03-05T19:37:47;22.50;;;11.15;;
27895;SDS011;15241;48.374;10.876;2023-03-05T19:42:46;19.98;;;11.38;;
27895;SDS011;15241;48.374;10.876;2023-03-05T19:47:45;21.93;;;10.88;;
27895;SDS011;15241;48.374;10.876;2023-03-05T19:52:44;22.05;;;12.37;;
27895;SDS011;15241;48.374;10.876;2023-03-05T19:57:43;25.27;;;13.18;;
27895;SDS011;15241;48.374;10.876;2023-03-05T20:02:41;25.55;;;13.90;;
27895;SDS011;15241;48.374;10.876;2023-03-05T20:07:40;25.52;;;13.90;;
27895;SDS011;15241;48.374;10.876;2023-03-05T20:12:41;25.82;;;14.05;;
27895;SDS011;15241;48.374;10.876;2023-03-05T20:17:40;24.18;;;13.18;;
27895;SDS011;15241;48.374;10.876;2023-03-05T20:22:40;24.35;;;13.03;;
27895;SDS011;15241;48.374;10.876;2023-03-05T20:27:39;21.45;;;12.58;;
27895;SDS011;15241;48.374;10.876;2023-03-05T20:32:40;21.37;;;12.33;;
27895;SDS011;15241;48.374;10.876;2023-03-05T20:37:39;27.10;;;14.55;;
27895;SDS011;15241;48.374;10.876;2023-03-05T20:42:39;24.15;;;13.20;;
27895;SDS011;15241;48.374;10.876;2023-03-05T20:47:38;26.65;;;12.90;;
27895;SDS011;15241;48.374;10.876;2023-03-05T20:52:38;23.00;;;13.60;;
27895;SDS011;15241;48.374;10.876;2023-03-05T20:57:37;25.55;;;13.80;;
27895;SDS011;15241;48.374;10.876;2023-03-05T21:02:36;28.35;;;14.05;;
27895;SDS011;15241;48.374;10.876;2023-03-05T21:07:37;27.70;;;14.18;;
27895;SDS011;15241;48.374;10.876;2023-03-05T21:12:36;25.52;;;13.13;;
27895;SDS011;15241;48.374;10.876;2023-03-05T21:17:35;30.92;;;15.03;;
27895;SDS011;15241;48.374;10.876;2023-03-05T21:27:54;29.30;;;15.40;;
27895;SDS011;15241;48.374;10.876;2023-03-05T21:32:54;27.98;;;14.43;;
27895;SDS011;15241;48.374;10.876;2023-03-05T21:37:53;25.52;;;13.78;;
27895;SDS011;15241;48.374;10.876;2023-03-05T21:42:52;24.72;;;13.80;;
27895;SDS011;15241;48.374;10.876;2023-03-05T21:47:51;27.15;;;14.45;;
27895;SDS011;15241;48.374;10.876;2023-03-05T21:52:50;25.68;;;13.62;;
27895;SDS011;15241;48.374;10.876;2023-03-05T21:57:50;29.77;;;16.57;;
27895;SDS011;15241;48.374;10.876;2023-03-05T22:02:48;28.87;;;16.23;;
27895;SDS011;15241;48.374;10.876;2023-03-05T22:07:49;27.62;;;14.95;;
27895;SDS011;15241;48.374;10.876;2023-03-05T22:12:48;27.85;;;15.03;;
27895;SDS011;15241;48.374;10.876;2023-03-05T22:17:50;28.95;;;15.80;;
27895;SDS011;15241;48.374;10.876;2023-03-05T22:22:49;30.85;;;14.98;;
27895;SDS011;15241;48.374;10.876;2023-03-05T22:27:48;28.05;;;14.35;;
27895;SDS011;15241;48.374;10.876;2023-03-05T22:32:47;32.15;;;15.28;;
27895;SDS011;15241;48.374;10.876;2023-03-05T22:37:46;28.62;;;14.47;;
27895;SDS011;15241;48.374;10.876;2023-03-05T22:42:45;25.77;;;14.85;;
27895;SDS011;15241;48.374;10.876;2023-03-05T22:47:46;28.30;;;14.95;;
27895;SDS011;15241;48.374;10.876;2023-03-05T22:52:46;26.62;;;13.70;;
27895;SDS011;15241;48.374;10.876;2023-03-05T22:57:45;25.85;;;14.80;;
27895;SDS011;15241;48.374;10.876;2023-03-05T23:02:44;25.00;;;13.45;;
27895;SDS011;15241;48.374;10.876;2023-03-05T23:07:43;25.90;;;14.00;;
27895;SDS011;15241;48.374;10.876;2023-03-05T23:12:43;26.75;;;14.53;;
27895;SDS011;15241;48.374;10.876;2023-03-05T23:17:44;28.60;;;14.50;;
27895;SDS011;15241;48.374;10.876;2023-03-05T23:22:43;29.25;;;14.00;;
27895;SDS011;15241;48.374;10.876;2023-03-05T23:27:43;25.80;;;14.70;;
27895;SDS011;15241;48.374;10.876;2023-03-05T23:32:43;28.40;;;14.35;;
27895;SDS011;15241;48.374;10.876;2023-03-05T23:37:43;33.78;;;14.98;;
27895;SDS011;15241;48.374;10.876;2023-03-05T23:42:42;26.60;;;14.63;;
27895;SDS011;15241;48.374;10.876;2023-03-05T23:47:42;29.35;;;13.20;;
27895;SDS011;15241;48.374;10.876;2023-03-05T23:52:41;29.02;;;15.03;;
27895;SDS011;15241;48.374;10.876;2023-03-05T23:57:41;28.42;;;13.98;;
